Time;durP1;ratioP1;P1;durP2;ratioP2;P2;SDS_P1;SDS_P2;PMS_P1;PMS_P2;Temp;Humidity;BMP_temperature;BMP_pressure;BME280_temperature;BME280_humidity;BME280_pressure;Samples;Min_cycle;Max_cycle;Signal;HPM_P1;HPM_P2
2023/10/08 00:02:25;;;;;;;5.07;3.80;;;15.50;99.90;;;;;;5116727;28;20177;-77
2023/10/08 00:04:54;;;;;;;4.20;3.47;;;15.40;99.90;;;;;;5119165;28;20645;-79
2023/10/08 00:07:27;;;;;;;4.07;3.67;;;15.40;99.90;;;;;;5132340;28;20205;-79
2023/10/08 00:09:53;;;;;;;3.73;3.33;;;15.30;99.90;;;;;;5121101;28;20190;-78
2023/10/08 00:12:22;;;;;;;4.43;3.67;;;15.30;99.90;;;;;;5116731;28;20592;-77
2023/10/08 00:14:53;;;;;;;4.87;3.73;;;15.20;99.90;;;;;;5116139;28;20177;-77
2023/10/08 00:17:19;;;;;;;6.13;3.77;;;15.20;99.90;;;;;;5116666;28;20162;-77
2023/10/08 00:19:45;;;;;;;5.93;3.90;;;15.20;99.90;;;;;;5115471;28;20267;-78
2023/10/08 00:22:13;;;;;;;5.17;3.73;;;15.10;99.90;;;;;;5116305;28;20174;-77
2023/10/08 00:24:42;;;;;;;4.07;3.50;;;15.10;99.90;;;;;;5116935;28;20184;-78
2023/10/08 00:27:09;;;;;;;3.63;3.33;;;15.50;99.90;;;;;;5097518;28;20304;-77
2023/10/08 00:29:39;;;;;;;4.83;3.57;;;15.10;99.90;;;;;;5116354;28;20758;-78
2023/10/08 00:32:11;;;;;;;5.17;3.97;;;15.10;99.90;;;;;;5118396;28;20176;-78
2023/10/08 00:34:41;;;;;;;5.13;4.23;;;15.10;99.90;;;;;;5119249;28;20187;-79
2023/10/08 00:37:09;;;;;;;7.00;4.23;;;15.10;99.90;;;;;;5115952;28;20169;-76
2023/10/08 00:39:37;;;;;;;5.97;4.47;;;15.00;99.90;;;;;;5115969;28;20178;-78
2023/10/08 00:42:07;;;;;;;4.93;3.43;;;15.00;99.90;;;;;;5116516;28;20645;-78
2023/10/08 00:44:47;;;;;;;6.30;3.67;;;15.00;99.90;;;;;;5115947;28;20172;-80
2023/10/08 00:47:16;;;;;;;4.27;3.80;;;14.90;99.90;;;;;;5098328;28;20208;-79
2023/10/08 00:57:21;;;;;;;4.33;3.93;;;14.70;99.90;;;;;;5115197;28;20207;-79
2023/10/08 00:59:53;;;;;;;5.33;3.87;;;14.70;99.90;;;;;;5115317;28;20188;-78
2023/10/08 01:02:27;;;;;;;7.43;4.27;;;14.70;99.90;;;;;;5115920;28;20158;-78
2023/10/08 01:04:55;;;;;;;6.20;4.10;;;14.60;99.90;;;;;;5115785;28;20160;-78
2023/10/08 01:07:23;;;;;;;5.17;3.60;;;14.60;99.90;;;;;;5114934;28;20211;-79
2023/10/08 01:09:58;;;;;;;3.80;3.47;;;14.50;99.90;;;;;;5114769;28;20161;-78
2023/10/08 01:12:26;;;;;;;4.83;3.43;;;14.50;99.90;;;;;;5130288;28;20185;-78
2023/10/08 01:15:13;;;;;;;4.03;3.40;;;14.50;99.90;;;;;;5116847;28;20694;-77
2023/10/08 01:17:47;;;;;;;4.37;3.33;;;14.50;99.90;;;;;;5114862;28;20178;-76
2023/10/08 01:20:33;;;;;;;4.83;3.20;;;14.50;99.90;;;;;;5114841;28;20227;-78
2023/10/08 01:23:21;;;;;;;5.10;3.60;;;14.50;99.90;;;;;;5116224;28;20554;-79
2023/10/08 01:25:52;;;;;;;5.63;3.40;;;14.50;99.90;;;;;;5112022;28;20170;-78
2023/10/08 01:28:31;;;;;;;6.03;3.23;;;14.50;99.90;;;;;;5135800;28;20190;-80
2023/10/08 01:31:00;;;;;;;4.07;3.00;;;14.40;99.90;;;;;;5127033;28;20248;-76
2023/10/08 01:33:38;;;;;;;6.10;3.20;;;14.40;99.90;;;;;;5115354;28;20170;-77
2023/10/08 01:36:05;;;;;;;5.27;2.50;;;14.40;99.90;;;;;;5114419;28;20158;-77
2023/10/08 01:38:33;;;;;;;4.60;3.20;;;14.30;99.90;;;;;;5096566;28;20182;-78
2023/10/08 01:43:44;;;;;;;5.00;2.80;;;14.10;99.90;;;;;;5114808;28;20985;-77
2023/10/08 01:46:12;;;;;;;3.10;2.80;;;14.20;99.90;;;;;;5115435;28;20183;-78
2023/10/08 01:48:39;;;;;;;3.07;2.73;;;14.20;99.90;;;;;;5114027;28;20239;-78
2023/10/08 01:51:11;;;;;;;3.67;2.90;;;13.70;99.90;;;;;;5096680;28;20174;-79
2023/10/08 01:53:38;;;;;;;4.23;3.20;;;14.20;99.90;;;;;;5113975;28;20177;-78
2023/10/08 01:56:04;;;;;;;4.47;3.10;;;14.20;99.90;;;;;;5114073;28;20173;-77
2023/10/08 01:58:30;;;;;;;4.20;3.00;;;14.10;99.90;;;;;;5114850;28;20162;-79
2023/10/08 02:01:00;;;;;;;4.63;3.20;;;13.70;99.90;;;;;;5113761;28;20202;-79
2023/10/08 02:03:27;;;;;;;3.23;2.50;;;14.00;99.90;;;;;;5113694;28;20201;-77
2023/10/08 02:05:53;;;;;;;3.67;2.90;;;14.00;99.90;;;;;;5096616;28;20195;-79
2023/10/08 02:08:19;;;;;;;2.97;2.60;;;14.00;99.90;;;;;;5097265;28;20212;-77
2023/10/08 02:10:48;;;;;;;4.07;2.77;;;14.00;99.90;;;;;;5116750;28;20174;-78
2023/10/08 02:13:15;;;;;;;3.00;2.80;;;14.00;99.90;;;;;;5114566;28;20170;-77
2023/10/08 02:15:44;;;;;;;3.90;2.73;;;14.00;99.90;;;;;;5115929;28;20629;-78
2023/10/08 02:18:10;;;;;;;3.30;3.00;;;14.00;99.90;;;;;;5114025;28;20300;-80
2023/10/08 02:20:36;;;;;;;4.83;2.87;;;13.90;99.90;;;;;;5114644;28;20182;-77
2023/10/08 02:23:05;;;;;;;3.00;2.70;;;13.90;99.90;;;;;;5114270;28;20177;-78
2023/10/08 02:25:31;;;;;;;5.03;3.20;;;13.80;99.90;;;;;;5113008;28;20170;-79
2023/10/08 02:27:57;;;;;;;5.60;2.80;;;13.70;99.90;;;;;;5113154;28;20217;-78
2023/10/08 02:30:23;;;;;;;4.27;3.13;;;13.70;99.90;;;;;;5112991;28;20625;-79
2023/10/08 02:32:49;;;;;;;4.57;2.83;;;13.70;99.90;;;;;;5114060;28;20166;-76
2023/10/08 02:35:15;;;;;;;4.87;2.70;;;13.70;99.90;;;;;;5095980;28;20212;-78
2023/10/08 02:37:41;;;;;;;2.97;2.77;;;13.70;99.90;;;;;;5122538;28;20296;-79
2023/10/08 02:43:08;;;;;;;2.77;2.53;;;13.60;99.90;;;;;;5054411;28;20196;-78
2023/10/08 02:45:38;;;;;;;3.80;2.80;;;13.60;99.90;;;;;;5056672;28;20179;-78
2023/10/08 02:48:11;;;;;;;3.10;2.80;;;13.60;99.90;;;;;;5058001;28;20246;-78
2023/10/08 02:50:41;;;;;;;4.80;2.70;;;12.70;99.90;;;;;;5060812;28;20172;-78
2023/10/08 02:53:11;;;;;;;3.40;3.00;;;13.50;99.90;;;;;;5065381;28;20187;-79
2023/10/08 02:55:46;;;;;;;4.27;2.80;;;13.50;99.90;;;;;;5053830;28;20184;-78
2023/10/08 02:58:15;;;;;;;4.63;2.70;;;13.60;99.90;;;;;;5050753;28;20623;-79
2023/10/08 03:00:48;;;;;;;6.57;2.53;;;13.60;99.90;;;;;;5055800;28;20168;-80
2023/10/08 03:03:18;;;;;;;4.33;2.80;;;13.60;99.90;;;;;;5054177;28;20175;-79
2023/10/08 03:05:52;;;;;;;4.80;2.67;;;13.60;99.90;;;;;;5059361;28;20192;-79
2023/10/08 03:08:21;;;;;;;2.60;2.40;;;13.50;99.90;;;;;;5071639;28;20278;-79
2023/10/08 03:11:03;;;;;;;3.07;2.60;;;13.50;99.90;;;;;;5056492;28;20699;-78
2023/10/08 03:13:29;;;;;;;4.87;2.57;;;13.50;99.90;;;;;;5051562;28;20187;-79
2023/10/08 03:16:08;;;;;;;3.23;2.50;;;13.50;99.90;;;;;;5050052;28;20207;-77
2023/10/08 03:18:42;;;;;;;4.13;2.60;;;13.40;99.90;;;;;;5060942;28;20239;-80
2023/10/08 03:21:20;;;;;;;3.80;2.43;;;13.40;99.90;;;;;;5113144;28;20207;-76
2023/10/08 03:23:47;;;;;;;3.57;2.97;;;13.50;99.90;;;;;;5112585;28;20164;-78
2023/10/08 03:26:33;;;;;;;6.03;3.03;;;13.50;99.90;;;;;;5113149;28;20180;-78
2023/10/08 03:29:14;;;;;;;2.97;2.33;;;13.40;99.90;;;;;;5112949;28;20185;-77
2023/10/08 03:34:18;;;;;;;3.37;2.53;;;13.30;99.90;;;;;;5113212;28;20247;-77
2023/10/08 03:36:45;;;;;;;5.90;2.70;;;13.30;99.90;;;;;;5112531;28;20165;-77
2023/10/08 03:39:14;;;;;;;4.37;2.63;;;13.30;99.90;;;;;;5112414;28;20173;-77
2023/10/08 03:41:41;;;;;;;5.47;3.33;;;13.40;99.90;;;;;;5111595;28;20188;-79
2023/10/08 03:44:13;;;;;;;3.83;2.80;;;13.40;99.90;;;;;;5115652;28;20273;-79
2023/10/08 03:46:42;;;;;;;5.40;2.80;;;13.50;99.90;;;;;;5115615;28;20568;-78
2023/10/08 03:49:25;;;;;;;4.57;2.80;;;13.50;99.90;;;;;;5116445;28;20186;-80
2023/10/08 03:51:57;;;;;;;8.87;2.90;;;13.50;99.90;;;;;;5117361;28;20609;-78
2023/10/08 03:54:35;;;;;;;4.13;3.03;;;13.60;99.90;;;;;;5116635;28;20178;-79
2023/10/08 03:57:03;;;;;;;4.33;2.40;;;13.60;99.90;;;;;;5115735;28;20152;-80
2023/10/08 04:02:13;;;;;;;6.20;2.67;;;13.50;99.90;;;;;;5116147;28;20169;-79
2023/10/08 04:04:57;;;;;;;5.87;2.60;;;13.60;99.90;;;;;;5117542;28;20165;-77
2023/10/08 04:07:26;;;;;;;4.43;2.67;;;13.50;99.90;;;;;;5121064;28;20189;-77
2023/10/08 04:12:47;;;;;;;4.87;2.60;;;13.40;99.90;;;;;;5126683;28;20158;-81
2023/10/08 04:15:16;;;;;;;5.90;2.93;;;13.50;99.90;;;;;;5124757;28;20161;-79
2023/10/08 04:17:45;;;;;;;6.07;2.20;;;13.50;99.90;;;;;;5117039;28;20197;-78
2023/10/08 04:20:32;;;;;;;4.17;2.40;;;13.50;99.90;;;;;;5097799;28;20219;-79
2023/10/08 04:22:59;;;;;;;4.30;2.60;;;13.50;99.90;;;;;;5116383;28;20264;-76
2023/10/08 04:25:32;;;;;;;2.77;2.53;;;13.40;99.90;;;;;;5115734;28;20222;-78
2023/10/08 04:27:59;;;;;;;4.20;2.40;;;13.40;99.90;;;;;;5116038;28;20208;-78
2023/10/08 04:30:33;;;;;;;7.40;2.63;;;13.40;99.90;;;;;;5107271;28;20181;-79
2023/10/08 04:33:06;;;;;;;5.97;2.70;;;13.50;99.90;;;;;;5127161;28;20749;-77
2023/10/08 04:36:08;;;;;;;4.07;2.50;;;13.50;99.90;;;;;;5098645;28;20180;-77
2023/10/08 04:38:28;;;;;;;3.93;2.60;;;13.10;99.90;;;;;;5111708;28;20194;-77
2023/10/08 04:40:55;;;;;;;3.43;2.70;;;13.40;99.90;;;;;;5105198;28;20176;-79
2023/10/08 04:43:25;;;;;;;6.67;2.90;;;13.50;99.90;;;;;;5121299;28;20174;-77
2023/10/08 04:46:19;;;;;;;6.23;2.40;;;13.50;99.90;;;;;;5116781;28;20252;-76
2023/10/08 04:48:55;;;;;;;4.93;2.77;;;13.50;99.90;;;;;;5117908;28;20300;-79
2023/10/08 04:51:22;;;;;;;5.33;2.70;;;13.30;99.90;;;;;;5132035;28;20188;-78
2023/10/08 04:53:51;;;;;;;6.53;3.10;;;13.50;99.90;;;;;;5114633;28;20207;-80
2023/10/08 04:56:17;;;;;;;2.93;2.40;;;13.50;99.90;;;;;;5115153;28;20194;-78
2023/10/08 04:58:47;;;;;;;3.90;2.40;;;13.50;99.90;;;;;;5097184;28;20173;-78
2023/10/08 05:01:17;;;;;;;3.43;2.77;;;13.50;99.90;;;;;;5114755;28;20162;-78
2023/10/08 05:12:28;;;;;;;3.50;2.83;;;13.60;99.90;;;;;;5115589;28;20162;-77
2023/10/08 05:15:21;;;;;;;3.73;2.50;;;13.60;99.90;;;;;;5115243;28;20178;-78
2023/10/08 05:25:58;;;;;;;3.07;2.50;;;13.70;99.90;;;;;;5093629;28;20169;-77
2023/10/08 05:28:29;;;;;;;3.60;2.70;;;13.60;99.90;;;;;;5093557;28;20194;-79
2023/10/08 05:31:05;;;;;;;3.47;2.50;;;13.60;99.90;;;;;;5082798;28;20178;-77
2023/10/08 05:36:49;;;;;;;3.97;2.67;;;13.60;99.90;;;;;;5096583;28;20211;-78
2023/10/08 05:42:05;;;;;;;6.37;3.80;;;13.60;99.90;;;;;;5094207;28;20223;-77
2023/10/08 05:44:40;;;;;;;8.10;2.83;;;13.60;99.90;;;;;;5094007;28;20245;-79
2023/10/08 05:57:52;;;;;;;7.70;2.93;;;13.80;99.90;;;;;;5093556;28;20202;-77
2023/10/08 06:00:45;;;;;;;6.60;2.80;;;13.80;99.90;;;;;;5093050;28;20551;-76
2023/10/08 06:03:10;;;;;;;5.33;3.17;;;13.80;99.90;;;;;;5093307;28;20174;-77
2023/10/08 06:05:43;;;;;;;4.90;2.67;;;13.90;99.90;;;;;;5074647;28;20198;-78
2023/10/08 06:08:14;;;;;;;6.27;2.73;;;13.90;99.90;;;;;;5093166;28;20722;-78
2023/10/08 06:18:27;;;;;;;6.77;3.20;;;14.10;99.90;;;;;;5100565;28;20224;-78
2023/10/08 06:21:11;;;;;;;4.03;2.93;;;14.10;99.90;;;;;;5108706;28;20162;-79
2023/10/08 06:23:41;;;;;;;6.20;2.90;;;14.10;99.90;;;;;;5077875;28;20254;-76
2023/10/08 06:28:43;;;;;;;5.97;3.17;;;14.00;99.90;;;;;;5092267;28;20198;-78
2023/10/08 06:31:16;;;;;;;4.80;2.90;;;14.00;99.90;;;;;;5093768;28;20233;-78
2023/10/08 06:33:43;;;;;;;4.27;3.00;;;14.10;99.90;;;;;;5088208;28;20345;-75
2023/10/08 06:38:43;;;;;;;4.80;2.87;;;14.10;99.90;;;;;;5093228;28;20636;-77
2023/10/08 06:43:49;;;;;;;3.87;2.70;;;14.10;99.90;;;;;;5093020;28;20205;-78
2023/10/08 06:46:22;;;;;;;4.57;2.87;;;14.20;99.90;;;;;;5092288;28;20156;-79
2023/10/08 06:48:49;;;;;;;8.00;3.10;;;14.20;99.90;;;;;;5092519;28;20660;-78
2023/10/08 06:51:19;;;;;;;4.27;3.23;;;14.20;99.90;;;;;;5093848;28;20180;-78
2023/10/08 06:53:48;;;;;;;5.40;3.93;;;14.20;99.90;;;;;;5092879;28;20175;-78
2023/10/08 06:56:16;;;;;;;6.23;2.83;;;14.20;99.90;;;;;;5090858;28;20171;-78
2023/10/08 06:58:49;;;;;;;5.17;3.03;;;14.30;99.90;;;;;;5110174;28;20185;-80
2023/10/08 07:01:21;;;;;;;6.63;3.17;;;14.40;99.90;;;;;;5096623;28;20170;-78
2023/10/08 07:04:03;;;;;;;4.13;3.10;;;14.40;99.90;;;;;;5078051;28;20204;-77
2023/10/08 07:06:33;;;;;;;8.30;3.30;;;14.40;99.90;;;;;;5097833;28;20155;-79
2023/10/08 07:09:04;;;;;;;7.20;3.00;;;14.40;99.90;;;;;;5096907;28;20309;-78
2023/10/08 07:11:34;;;;;;;6.10;3.57;;;14.40;99.90;;;;;;5093548;28;20200;-79
2023/10/08 07:14:04;;;;;;;8.17;3.43;;;14.40;99.90;;;;;;5092823;28;20509;-78
2023/10/08 07:16:30;;;;;;;3.83;3.17;;;14.40;99.90;;;;;;5102245;28;20178;-78
2023/10/08 07:19:01;;;;;;;4.53;2.80;;;14.50;99.90;;;;;;5099282;28;20222;-78
2023/10/08 07:21:38;;;;;;;7.13;3.50;;;14.50;99.90;;;;;;5096611;28;20155;-78
2023/10/08 07:24:09;;;;;;;6.87;3.43;;;14.50;99.90;;;;;;5096148;28;20159;-78
2023/10/08 07:26:38;;;;;;;5.80;3.40;;;14.60;99.90;;;;;;5095866;28;20160;-76
2023/10/08 07:29:11;;;;;;;5.73;4.33;;;14.60;99.90;;;;;;5096243;28;20583;-77
2023/10/08 07:31:48;;;;;;;5.77;3.73;;;14.60;99.90;;;;;;5098906;28;20205;-79
2023/10/08 07:34:15;;;;;;;5.07;3.57;;;14.70;99.90;;;;;;5103628;28;20169;-78
2023/10/08 07:36:46;;;;;;;7.67;3.70;;;14.70;99.90;;;;;;5078743;28;20178;-77
2023/10/08 07:39:26;;;;;;;7.23;3.53;;;14.80;99.90;;;;;;5096929;28;20166;-80
2023/10/08 07:41:56;;;;;;;6.30;3.67;;;14.80;99.90;;;;;;5096108;28;20166;-78
2023/10/08 07:44:23;;;;;;;5.23;3.40;;;14.80;99.90;;;;;;5096195;28;20168;-78
2023/10/08 07:46:54;;;;;;;4.13;3.33;;;14.80;99.90;;;;;;5095852;28;20202;-77
2023/10/08 07:49:22;;;;;;;6.33;3.67;;;14.60;99.90;;;;;;5101252;28;20180;-78
2023/10/08 07:51:52;;;;;;;6.00;3.40;;;14.80;99.90;;;;;;5110964;28;20171;-78
2023/10/08 07:54:19;;;;;;;5.60;3.47;;;14.90;99.90;;;;;;5080528;28;20182;-78
2023/10/08 07:56:47;;;;;;;5.77;3.37;;;14.90;99.90;;;;;;5105016;28;20168;-79
2023/10/08 07:59:16;;;;;;;5.47;3.43;;;15.00;99.90;;;;;;5114215;28;20170;-78
2023/10/08 08:01:43;;;;;;;4.33;3.20;;;15.00;99.90;;;;;;5116537;28;20167;-79
2023/10/08 08:04:22;;;;;;;6.33;3.20;;;15.00;99.90;;;;;;5101404;28;20184;-79
2023/10/08 08:06:52;;;;;;;7.13;3.50;;;15.20;99.90;;;;;;5095624;28;20159;-78
2023/10/08 08:09:19;;;;;;;7.53;3.77;;;15.20;99.90;;;;;;5095656;28;20202;-77
2023/10/08 08:11:46;;;;;;;7.87;3.87;;;15.20;99.90;;;;;;5095650;28;20554;-77
2023/10/08 08:14:16;;;;;;;5.53;3.67;;;15.30;99.90;;;;;;5097282;28;20190;-77
2023/10/08 08:16:48;;;;;;;4.27;3.10;;;15.40;99.90;;;;;;5094223;28;20174;-78
2023/10/08 08:19:24;;;;;;;10.87;4.40;;;15.40;99.90;;;;;;5113219;28;20244;-79
2023/10/08 08:21:52;;;;;;;7.67;3.80;;;15.50;99.90;;;;;;5100927;28;20238;-77
2023/10/08 08:24:28;;;;;;;5.23;3.50;;;15.50;99.90;;;;;;5095643;28;20264;-77
2023/10/08 08:27:11;;;;;;;7.07;4.20;;;15.50;99.90;;;;;;5094806;28;20167;-78
2023/10/08 08:29:48;;;;;;;6.57;3.73;;;15.50;99.90;;;;;;5093515;28;20275;-79
2023/10/08 08:32:21;;;;;;;7.93;4.07;;;15.50;99.90;;;;;;5094949;28;20170;-78
2023/10/08 08:34:50;;;;;;;8.77;3.90;;;15.60;99.90;;;;;;5094728;28;20680;-77
2023/10/08 08:37:16;;;;;;;7.00;3.80;;;15.70;99.90;;;;;;5076216;28;20491;-77
2023/10/08 08:39:42;;;;;;;17.10;7.60;;;15.80;99.90;;;;;;5094697;28;20174;-76
2023/10/08 08:42:10;;;;;;;9.13;4.73;;;15.80;99.90;;;;;;5095344;28;20260;-76
2023/10/08 08:44:47;;;;;;;6.53;4.53;;;15.70;99.90;;;;;;5095016;28;20332;-77
2023/10/08 08:47:24;;;;;;;10.37;3.90;;;15.80;99.90;;;;;;5094764;28;20581;-78
2023/10/08 08:49:53;;;;;;;11.20;4.17;;;16.00;99.90;;;;;;5094719;28;20158;-76
2023/10/08 08:52:19;;;;;;;10.70;4.30;;;15.90;99.90;;;;;;5094792;28;20245;-79
2023/10/08 08:54:45;;;;;;;7.40;3.60;;;16.00;99.90;;;;;;5094402;28;20304;-78
2023/10/08 08:57:14;;;;;;;8.07;4.10;;;16.00;99.90;;;;;;5094147;28;20249;-77
2023/10/08 08:59:55;;;;;;;5.63;3.77;;;16.10;99.90;;;;;;5097070;28;20259;-78
2023/10/08 09:02:22;;;;;;;10.73;4.73;;;16.20;99.90;;;;;;5080236;28;20513;-78
2023/10/08 09:04:53;;;;;;;6.03;4.07;;;16.20;99.90;;;;;;5074728;28;20208;-77
2023/10/08 09:07:23;;;;;;;8.10;4.00;;;16.30;99.90;;;;;;5055908;28;20203;-78
2023/10/08 09:09:49;;;;;;;8.67;3.80;;;16.40;99.90;;;;;;5073875;28;20164;-75
2023/10/08 09:12:17;;;;;;;5.20;3.60;;;16.50;99.90;;;;;;5073633;28;20167;-78
2023/10/08 09:14:44;;;;;;;8.83;3.77;;;16.70;99.90;;;;;;5073515;28;20175;-77
2023/10/08 09:17:11;;;;;;;6.03;3.80;;;16.70;99.90;;;;;;5055875;28;20183;-77
2023/10/08 09:19:39;;;;;;;6.67;4.13;;;16.80;99.90;;;;;;5070696;28;20293;-75
2023/10/08 09:22:12;;;;;;;8.40;4.03;;;16.90;99.90;;;;;;5094950;28;20171;-76
2023/10/08 09:24:42;;;;;;;7.10;4.17;;;17.00;99.90;;;;;;5097894;28;20166;-77
2023/10/08 09:27:15;;;;;;;7.87;4.10;;;17.10;99.90;;;;;;5080410;28;20740;-77
2023/10/08 09:29:41;;;;;;;8.77;3.57;;;17.20;99.90;;;;;;5101774;28;20158;-78
2023/10/08 09:32:13;;;;;;;5.63;3.67;;;17.40;99.90;;;;;;5110030;28;20194;-78
2023/10/08 09:34:39;;;;;;;7.67;4.33;;;17.30;99.90;;;;;;5100129;28;20618;-77
2023/10/08 09:37:07;;;;;;;5.67;4.07;;;17.40;99.90;;;;;;5081197;28;20562;-77
2023/10/08 09:39:36;;;;;;;7.87;4.77;;;17.50;99.90;;;;;;5097646;28;20201;-79
2023/10/08 09:42:03;;;;;;;7.70;4.37;;;17.60;99.90;;;;;;5110356;28;20193;-78
2023/10/08 09:44:30;;;;;;;5.30;4.00;;;17.70;99.90;;;;;;5104348;28;20250;-76
2023/10/08 09:47:12;;;;;;;6.33;3.77;;;17.80;99.90;;;;;;5075912;28;20518;-78
2023/10/08 09:49:48;;;;;;;8.63;4.17;;;18.00;99.90;;;;;;5094483;28;20186;-75
2023/10/08 09:52:19;;;;;;;6.73;4.10;;;18.00;99.90;;;;;;5095246;28;20176;-78
2023/10/08 09:54:55;;;;;;;8.30;4.40;;;18.30;99.90;;;;;;5095492;28;20162;-76
2023/10/08 09:57:25;;;;;;;6.53;4.27;;;18.30;99.90;;;;;;5095842;28;20169;-78
2023/10/08 09:59:51;;;;;;;8.63;4.10;;;18.50;99.90;;;;;;5106630;28;20683;-77
2023/10/08 10:02:21;;;;;;;8.23;4.07;;;18.60;99.90;;;;;;5093674;28;20166;-77
2023/10/08 10:04:53;;;;;;;8.63;4.47;;;18.70;99.90;;;;;;5093252;28;20175;-78
2023/10/08 10:07:20;;;;;;;6.87;4.13;;;18.80;99.90;;;;;;5093028;28;20589;-77
2023/10/08 10:09:53;;;;;;;9.03;4.30;;;18.80;99.90;;;;;;5092828;28;20209;-78
2023/10/08 10:12:26;;;;;;;9.27;4.60;;;18.90;99.90;;;;;;5092840;28;20151;-77
2023/10/08 10:14:57;;;;;;;7.20;4.63;;;19.00;99.90;;;;;;5093100;28;20155;-77
2023/10/08 10:17:28;;;;;;;11.27;5.77;;;19.00;99.90;;;;;;5092839;28;20722;-77
2023/10/08 10:20:00;;;;;;;11.40;5.00;;;19.10;99.90;;;;;;5074961;28;20736;-78
2023/10/08 10:22:34;;;;;;;9.87;4.70;;;19.20;99.90;;;;;;5075725;28;20529;-77
2023/10/08 10:25:14;;;;;;;8.07;4.73;;;19.30;99.90;;;;;;5054670;28;20643;-77
2023/10/08 10:27:42;;;;;;;7.93;4.23;;;19.40;99.90;;;;;;5072274;28;20233;-76
2023/10/08 10:30:08;;;;;;;7.53;3.87;;;19.50;99.90;;;;;;5072655;28;20580;-77
2023/10/08 10:32:37;;;;;;;9.67;4.83;;;19.50;99.90;;;;;;5072993;28;20179;-77
2023/10/08 10:35:05;;;;;;;11.90;8.23;;;19.60;99.90;;;;;;5072663;28;20186;-77
2023/10/08 10:37:41;;;;;;;38.60;22.77;;;19.70;99.90;;;;;;5072578;28;20171;-77
2023/10/08 10:40:12;;;;;;;47.20;28.57;;;19.70;99.90;;;;;;5072632;28;20166;-77
2023/10/08 10:42:42;;;;;;;14.40;8.50;;;19.20;99.90;;;;;;5054551;28;20167;-78
2023/10/08 10:48:12;;;;;;;10.30;4.50;;;20.10;99.90;;;;;;5072298;28;20561;-76
2023/10/08 10:53:27;;;;;;;7.33;4.33;;;20.40;99.90;;;;;;5077465;28;20219;-77
2023/10/08 10:56:09;;;;;;;10.03;4.80;;;20.40;99.90;;;;;;5078024;28;20839;-77
2023/10/08 10:58:39;;;;;;;6.63;4.10;;;20.40;99.90;;;;;;5080479;28;20224;-78
2023/10/08 11:01:23;;;;;;;9.10;4.03;;;20.50;99.90;;;;;;5084405;28;20173;-77
2023/10/08 11:03:52;;;;;;;6.60;3.80;;;20.70;99.90;;;;;;5084905;28;20171;-78
2023/10/08 11:06:25;;;;;;;10.00;4.73;;;20.80;99.90;;;;;;5078063;28;20179;-77
2023/10/08 11:08:52;;;;;;;8.03;4.10;;;20.70;99.90;;;;;;5083289;28;20269;-78
2023/10/08 11:11:27;;;;;;;8.27;4.50;;;20.80;99.90;;;;;;5096886;28;20174;-78
2023/10/08 11:14:00;;;;;;;6.07;4.40;;;20.90;99.90;;;;;;5060560;28;20162;-77
2023/10/08 11:16:26;;;;;;;7.33;3.83;;;20.90;99.90;;;;;;5058637;28;20167;-76
2023/10/08 11:19:01;;;;;;;6.77;5.17;;;20.90;99.90;;;;;;5085002;28;20238;-77
2023/10/08 11:21:31;;;;;;;7.43;4.80;;;20.90;99.90;;;;;;5062166;28;20174;-77
2023/10/08 11:23:58;;;;;;;8.97;3.93;;;21.00;99.90;;;;;;5077727;28;20177;-78
2023/10/08 11:26:32;;;;;;;9.27;4.57;;;21.00;99.90;;;;;;5096338;28;20163;-77
2023/10/08 11:29:03;;;;;;;5.90;3.83;;;21.00;99.90;;;;;;5096175;28;20244;-78
2023/10/08 11:31:29;;;;;;;7.37;4.30;;;21.00;99.90;;;;;;5083454;28;20167;-78
2023/10/08 11:34:08;;;;;;;13.93;4.80;;;21.10;99.90;;;;;;5100333;28;20181;-77
2023/10/08 11:36:48;;;;;;;6.40;4.47;;;21.10;99.90;;;;;;5097411;28;20162;-78
2023/10/08 11:39:30;;;;;;;9.23;5.53;;;21.20;99.90;;;;;;5101603;28;20234;-79
2023/10/08 11:42:03;;;;;;;12.30;5.40;;;21.20;99.90;;;;;;5108982;28;20169;-77
2023/10/08 11:44:36;;;;;;;8.60;4.93;;;21.30;99.90;;;;;;5101077;28;20227;-77
2023/10/08 11:47:12;;;;;;;17.80;9.80;;;21.20;99.90;;;;;;5095115;28;20170;-78
2023/10/08 11:49:47;;;;;;;15.03;6.90;;;21.20;99.90;;;;;;5095402;28;20677;-77
2023/10/08 11:52:16;;;;;;;6.27;4.47;;;21.30;99.90;;;;;;5095449;28;20207;-76
2023/10/08 11:54:48;;;;;;;10.37;4.70;;;21.40;99.90;;;;;;5095500;28;20175;-77
2023/10/08 11:57:14;;;;;;;11.33;5.17;;;21.40;99.90;;;;;;5095966;28;20213;-77
2023/10/08 11:59:39;;;;;;;10.33;3.77;;;21.40;99.90;;;;;;5076940;28;20261;-76
2023/10/08 12:02:08;;;;;;;8.17;4.70;;;21.50;99.90;;;;;;5095587;28;20254;-76
2023/10/08 12:04:36;;;;;;;10.83;4.50;;;21.50;99.90;;;;;;5076064;28;20171;-77
2023/10/08 12:07:07;;;;;;;7.30;4.00;;;21.40;99.90;;;;;;5095215;28;20206;-76
2023/10/08 12:09:37;;;;;;;10.13;3.60;;;21.10;99.90;;;;;;5095307;28;20245;-76
2023/10/08 12:12:09;;;;;;;6.83;3.73;;;21.40;99.90;;;;;;5095366;28;20241;-76
2023/10/08 12:14:37;;;;;;;8.33;4.17;;;21.40;99.90;;;;;;5095781;28;20265;-78
2023/10/08 12:17:11;;;;;;;9.77;3.53;;;21.50;99.90;;;;;;5096728;28;20529;-76
2023/10/08 12:19:40;;;;;;;7.83;3.70;;;21.50;99.90;;;;;;5097009;28;20648;-77
2023/10/08 12:22:08;;;;;;;9.00;3.87;;;21.50;99.90;;;;;;5079475;28;20177;-78
2023/10/08 12:24:35;;;;;;;8.73;3.90;;;21.80;99.90;;;;;;5108821;28;20170;-78
2023/10/08 12:27:03;;;;;;;6.23;3.63;;;21.50;99.90;;;;;;5090500;28;20170;-77
2023/10/08 12:29:31;;;;;;;4.40;2.92;;;21.50;99.90;;;;;;5097941;28;20179;-80
2023/10/08 12:31:59;;;;;;;8.27;3.50;;;21.60;99.90;;;;;;5058600;28;20228;-77
2023/10/08 12:34:25;;;;;;;6.03;3.17;;;21.60;99.90;;;;;;5074543;28;20178;-76
2023/10/08 12:36:51;;;;;;;6.63;3.00;;;21.70;99.90;;;;;;5074593;28;20174;-77
2023/10/08 12:39:17;;;;;;;7.10;3.13;;;21.70;99.90;;;;;;5074604;28;20179;-78
2023/10/08 12:41:44;;;;;;;7.50;2.73;;;21.70;99.90;;;;;;5074482;28;20655;-77
2023/10/08 12:44:11;;;;;;;6.40;2.80;;;21.80;99.90;;;;;;5075255;28;20258;-77
2023/10/08 12:46:37;;;;;;;9.33;3.73;;;21.80;99.90;;;;;;5075123;28;20261;-78
2023/10/08 12:49:03;;;;;;;6.50;3.00;;;21.90;99.90;;;;;;5063697;28;20222;-78
2023/10/08 12:51:33;;;;;;;7.17;2.87;;;21.60;99.90;;;;;;5081445;28;20167;-76
2023/10/08 12:54:21;;;;;;;13.03;3.10;;;21.60;99.90;;;;;;5075825;28;20674;-77
2023/10/08 12:56:54;;;;;;;7.00;3.43;;;21.60;99.90;;;;;;5076314;28;20155;-76
2023/10/08 12:59:20;;;;;;;4.40;2.80;;;21.60;99.90;;;;;;5077847;28;20185;-76
2023/10/08 13:01:55;;;;;;;6.13;2.70;;;21.50;99.90;;;;;;5075334;28;20159;-76
2023/10/08 13:04:28;;;;;;;7.10;2.50;;;21.50;99.90;;;;;;5073957;28;20221;-78
2023/10/08 13:07:01;;;;;;;8.33;2.50;;;21.50;99.90;;;;;;5073714;28;20191;-75
2023/10/08 13:09:28;;;;;;;7.47;3.37;;;21.40;99.90;;;;;;5055959;28;20175;-76
2023/10/08 13:11:59;;;;;;;8.83;2.90;;;21.30;99.90;;;;;;5073552;28;20221;-76
2023/10/08 13:14:26;;;;;;;5.70;3.17;;;21.30;99.90;;;;;;5055254;28;20270;-78
2023/10/08 13:16:55;;;;;;;8.33;3.93;;;21.30;99.90;;;;;;5073817;28;20174;-76
2023/10/08 13:19:26;;;;;;;6.50;3.40;;;21.30;99.90;;;;;;5099983;28;20229;-74
2023/10/08 13:21:52;;;;;;;8.43;2.80;;;21.40;99.90;;;;;;5115048;28;20538;-76
2023/10/08 13:24:19;;;;;;;8.53;2.77;;;21.40;99.90;;;;;;5109196;28;20198;-76
2023/10/08 13:26:47;;;;;;;6.97;2.60;;;21.40;99.90;;;;;;5132347;28;20176;-76
2023/10/08 13:29:14;;;;;;;4.50;2.93;;;21.50;99.90;;;;;;5121748;28;20197;-78
2023/10/08 13:31:41;;;;;;;10.00;2.57;;;21.50;99.40;;;;;;5114951;28;20162;-76
2023/10/08 13:34:12;;;;;;;9.63;2.93;;;21.60;99.90;;;;;;5114329;28;20202;-78
2023/10/08 13:36:38;;;;;;;8.40;2.47;;;21.70;99.50;;;;;;5114050;28;20250;-76
2023/10/08 13:39:09;;;;;;;5.40;2.60;;;21.80;99.50;;;;;;5115720;28;20176;-78
2023/10/08 13:41:38;;;;;;;10.53;3.13;;;21.80;98.90;;;;;;5119999;28;20154;-78
2023/10/08 13:44:08;;;;;;;7.83;3.27;;;21.90;98.40;;;;;;5116809;28;20690;-76
2023/10/08 13:46:40;;;;;;;10.57;3.50;;;21.60;98.80;;;;;;5127813;28;20158;-77
2023/10/08 13:49:08;;;;;;;7.80;3.17;;;21.90;99.50;;;;;;5115005;28;20262;-77
2023/10/08 13:51:36;;;;;;;34.33;21.83;;;21.90;99.90;;;;;;5113052;28;20174;-77
2023/10/08 13:54:09;;;;;;;36.77;19.77;;;21.80;99.90;;;;;;5131751;28;20171;-76
2023/10/08 13:56:37;;;;;;;13.37;6.90;;;21.70;99.90;;;;;;5117747;28;20166;-78
2023/10/08 13:59:13;;;;;;;9.00;4.60;;;21.70;99.90;;;;;;5114326;28;20641;-76
2023/10/08 14:01:51;;;;;;;4.43;2.87;;;21.60;99.90;;;;;;5113355;28;20624;-76
2023/10/08 14:04:19;;;;;;;11.03;3.80;;;21.50;99.90;;;;;;5113054;28;20686;-77
2023/10/08 14:06:54;;;;;;;9.30;4.10;;;21.50;99.90;;;;;;5113643;28;20201;-76
2023/10/08 14:09:36;;;;;;;8.90;4.00;;;21.40;99.90;;;;;;5113178;28;20177;-77
2023/10/08 14:12:03;;;;;;;9.57;3.40;;;21.40;99.90;;;;;;5113599;28;20249;-76
2023/10/08 14:14:30;;;;;;;8.73;4.37;;;21.30;99.90;;;;;;5113003;28;20173;-75
2023/10/08 14:16:59;;;;;;;10.90;4.77;;;21.30;99.90;;;;;;5113415;28;20630;-75
2023/10/08 14:19:35;;;;;;;8.67;4.53;;;21.30;99.90;;;;;;5113261;28;20225;-78
2023/10/08 14:22:03;;;;;;;11.03;4.10;;;21.20;99.90;;;;;;5113276;28;20180;-76